Latest Coastal Weather Observations for Cape Willoughby

IDS60701

Issued at 5:55 am CDT Saturday 29 November 2014 (issued every 10 minutes, with the page automatically refreshed every 10 minutes)

About coastal observations | Map of coastal stations | Coastal observations for SA | Marine services | Other Formats
Station Details ID: 022803 Name: CAPE WILLOUGHBY Lat: -35.84 Lon: 138.13 Height: 55.0 m
Data from the previous 72 hours. | See also: Recent months at Cape Willoughby
Date/Time
CDT
Temp

°C
Wind Pressure Rain
since 9am
mm
Weather Cloud Vis
km
Sea
Height
m
Swell
Dir
 
Speed
knots
Gust
knots
hPa Trend Height
m
Period
s
Dir
29/05:30am 16.6 E 8 11 1012.7 - 0.0 - - - - - - -
29/05:00am 16.5 E 7 9 1012.6 - 0.0 - - - - - - -
29/04:30am 16.4 E 6 8 1012.7 - 0.0 - - - - - - -
29/04:00am 16.3 E 4 7 1012.9 - 0.0 - - - - - - -
29/03:30am 16.2 E 4 5 1013.0 - 0.0 - - - - - - -
29/03:00am 16.1 E 3 4 1013.5 - 0.0 - - - - - - -
29/02:30am 16.2 E 5 6 1013.9 - 0.0 - - - - - - -
29/02:00am 16.2 E 6 7 1014.2 - 0.0 - - - - - - -
29/01:30am 16.2 E 6 7 1014.7 - 0.0 - - - - - - -
29/01:00am 16.1 E 7 9 1015.2 - 0.0 - - - - - - -
29/12:30am 16.0 ESE 7 8 1015.6 - 0.0 - - - - - - -
29/12:00am 16.1 ESE 7 9 1016.1 - 0.0 - - - - - - -
 
Date/Time
CDT
Temp

°C
Wind Pressure Rain
since 9am
mm
Weather Cloud Vis
km
Sea
Height
m
Swell
Dir
 
Speed
knots
Gust
knots
hPa Trend Height
m
Period
s
Dir
28/11:30pm 16.1 SE 10 12 1016.3 - 0.0 - - - - - - -
28/11:00pm 16.1 SE 11 13 1016.7 - 0.0 - - - - - - -
28/10:30pm 16.2 SE 10 12 1017.0 - 0.0 - - - - - - -
28/10:00pm 16.3 SE 10 11 1017.1 - 0.0 - - - - - - -
28/09:30pm 16.5 SE 11 13 1016.9 - 0.0 - - - - - - -
28/09:00pm 16.5 SE 11 13 1017.1 - 0.0 - - - - - - -
28/08:30pm 16.7 SE 10 12 1017.0 - 0.0 - - - - - - -
28/08:00pm 17.0 SE 11 12 1016.9 - 0.0 - - - - - - -
28/07:30pm 17.1 SSE 9 11 1017.1 - 0.0 - - - - - - -
28/07:00pm 17.2 SSE 9 11 1016.8 - 0.0 - - - - - - -
28/06:30pm 17.1 SSE 9 11 1016.9 - 0.0 - - - - - - -
28/06:00pm 17.1 SSE 9 11 1016.8 - 0.0 - - - - - - -
28/05:30pm 17.7 SSE 8 10 1017.0 - 0.0 - - - - - - -
28/05:00pm 17.6 SSE 8 9 1017.2 - 0.0 - - - - - - -
28/04:30pm 17.4 SSE 8 11 1017.3 - 0.0 - - - - - - -
28/04:00pm 17.8 SSE 10 13 1017.5 - 0.0 - - - - - - -
28/03:30pm 17.5 SSE 9 11 1018.0 - 0.0 - - - - - - -
28/03:00pm 17.4 SSE 8 11 1018.2 - 0.0 - - - - - - -
28/02:30pm 18.7 SSE 7 10 1018.5 - 0.0 - - - - - - -
28/02:00pm 19.0 SE 8 11 1018.7 - 0.0 - - - - - - -
28/01:30pm 20.0 SE 9 11 1019.2 - 0.0 - - - - - - -
28/01:00pm 19.3 SE 9 10 1019.4 - 0.0 - - - - - - -
28/12:30pm 18.2 ESE 8 11 1019.6 - 0.0 - - - - - - -
28/12:00pm 17.7 E 9 11 1019.9 - 0.0 - - - - - - -
28/11:30am 17.4 E 10 13 1020.0 - 0.0 - - - - - - -
28/11:00am 17.2 E 12 14 1020.3 - 0.0 - - - - - - -
28/10:30am 17.0 E 11 14 1020.7 - 0.0 - - - - - - -
28/10:00am 16.6 E 13 16 1020.9 - 0.0 - - - - - - -
28/09:30am 16.1 E 12 16 1021.3 - 0.0 - - - - - - -
28/09:00am 15.9 E 12 14 1021.5 - 0.0 - - - - - - -
28/08:30am 15.4 E 13 16 1021.5 - 0.0 - - - - - - -
28/08:00am 15.1 E 13 17 1021.3 - 0.0 - - - - - - -
28/07:30am 14.9 ESE 12 16 1021.6 - 0.0 - - - - - - -
28/07:00am 14.7 ESE 13 16 1021.3 - 0.0 - - - - - - -
28/06:30am 14.7 ESE 14 17 1021.3 - 0.0 - - - - - - -
28/06:00am 14.7 ESE 16 18 1020.9 - 0.0 - - - - - - -
28/05:30am 14.7 SE 16 20 1020.8 - 0.0 - - - - - - -
28/05:00am 14.9 SE 14 18 1020.8 - 0.0 - - - - - - -
28/04:30am 15.0 SE 15 18 1020.6 - 0.0 - - - - - - -
28/04:00am 15.2 SE 16 20 1020.5 - 0.0 - - - - - - -
28/03:30am 15.1 SSE 16 20 1020.5 - 0.0 - - - - - - -
28/03:00am 15.1 SE 15 20 1020.6 - 0.0 - - - - - - -
28/02:30am 14.9 SE 14 17 1020.9 - 0.0 - - - - - - -
28/02:00am 14.9 SSE 14 19 1021.1 - 0.0 - - - - - - -
28/01:30am 14.9 SSE 12 17 1021.1 - 0.0 - - - - - - -
28/01:00am 14.9 SSE 13 17 1021.5 - 0.0 - - - - - - -
28/12:30am 14.9 SSE 12 15 1021.8 - 0.0 - - - - - - -
28/12:00am 14.8 SSE 10 14 1022.4 - 0.0 - - - - - - -
 
Date/Time
CDT
Temp

°C
Wind Pressure Rain
since 9am
mm
Weather Cloud Vis
km
Sea
Height
m
Swell
Dir
 
Speed
knots
Gust
knots
hPa Trend Height
m
Period
s
Dir
27/11:30pm 14.8 SE 14 16 1022.3 - 0.0 - - - - - - -
27/11:00pm 14.8 SE 12 15 1022.4 - 0.0 - - - - - - -
27/10:30pm 14.8 SE 13 15 1022.7 - 0.0 - - - - - - -
27/10:00pm 14.6 SE 14 18 1022.7 - 0.0 - - - - - - -
27/09:30pm 14.8 SE 15 17 1022.7 - 0.0 - - - - - - -
27/09:00pm 14.8 SSE 15 18 1022.8 - 0.0 - - - - - - -
27/08:30pm 15.0 SSE 16 20 1022.7 - 0.0 - - - - - - -
27/08:00pm 14.9 SSE 17 20 1022.6 - 0.0 - - - - - - -
27/07:30pm 15.4 SSE 15 19 1022.8 - 0.0 - - - - - - -
27/07:00pm 15.5 SSE 14 19 1022.9 - 0.0 - - - - - - -
27/06:30pm 15.4 SSE 14 18 1022.7 - 0.0 - - - - - - -
27/06:00pm 15.6 SSE 14 18 1022.8 - 0.0 - - - - - - -
27/05:30pm 15.8 SSE 14 19 1023.0 - 0.0 - - - - - - -
27/05:00pm 15.7 SSE 15 18 1023.3 - 0.0 - - - - - - -
27/04:30pm 15.7 SSE 15 19 1023.4 - 0.0 - - - - - - -
27/04:00pm 15.2 SSE 14 18 1023.5 - 0.0 - - - - - - -
27/03:30pm 15.7 SSE 15 18 1023.7 - 0.0 - - - - - - -
27/03:00pm 15.8 SSE 14 17 1023.9 - 0.0 - - - - - - -
27/02:30pm 16.8 SE 13 17 1024.1 - 0.0 - - - - - - -
27/02:00pm 16.7 SE 14 16 1024.4 - 0.0 - - - - - - -
27/01:30pm 16.7 SE 14 18 1024.6 - 0.0 - - - - - - -
27/01:00pm 16.8 SE 12 15 1024.8 - 0.0 - - - - - - -
27/12:30pm 16.5 ESE 13 16 1024.8 - 0.0 - - - - - - -
27/12:00pm 16.4 ESE 12 16 1025.1 - 0.0 - - - - - - -
27/11:30am 15.9 ESE 13 16 1025.2 - 0.0 - - - - - - -
27/11:00am 15.6 ESE 15 19 1025.3 - 0.0 - - - - - - -
27/10:30am 15.5 ESE 14 17 1025.4 - 0.0 - - - - - - -
27/10:00am 15.2 ESE 15 19 1025.4 - 0.0 - - - - - - -
27/09:30am 14.7 ESE 16 20 1025.7 - 0.0 - - - - - - -
27/09:00am 14.8 ESE 16 21 1025.9 - 0.0 - - - - - - -
27/08:30am 14.6 ESE 16 21 1025.6 - 0.0 - - - - - - -
27/08:00am 14.7 ESE 17 21 1025.5 - 0.0 - - - - - - -
27/07:30am 14.7 ESE 16 19 1025.3 - 0.0 - - - - - - -
27/07:00am 14.4 ESE 16 20 1024.9 - 0.0 - - - - - - -
27/06:30am 14.8 ESE 17 21 1024.6 - 0.0 - - - - - - -
27/06:00am 14.8 ESE 17 21 1024.3 - 0.0 - - - - - - -
27/05:30am 14.8 SE 18 22 1023.9 - 0.0 - - - - - - -
27/05:00am 14.7 SE 17 21 1023.7 - 0.0 - - - - - - -
27/04:30am 14.7 SE 19 22 1023.4 - 0.0 - - - - - - -
27/04:00am 14.6 SE 17 21 1023.7 - 0.0 - - - - - - -
27/03:30am 14.9 SE 17 19 1023.6 - 0.0 - - - - - - -
27/03:00am 14.9 SE 15 18 1024.0 - 0.0 - - - - - - -
27/02:30am 15.1 SE 17 20 1024.1 - 0.0 - - - - - - -
27/02:00am 15.1 SE 16 20 1024.2 - 0.0 - - - - - - -
27/01:30am 15.1 SE 15 19 1024.4 - 0.0 - - - - - - -
27/01:00am 15.3 SE 15 18 1024.5 - 0.0 - - - - - - -
27/12:30am 15.4 SE 16 20 1024.5 - 0.0 - - - - - - -
27/12:00am 15.1 SE 14 18 1024.6 - 0.0 - - - - - - -
 
Date/Time
CDT
Temp

°C
Wind Pressure Rain
since 9am
mm
Weather Cloud Vis
km
Sea
Height
m
Swell
Dir
 
Speed
knots
Gust
knots
hPa Trend Height
m
Period
s
Dir
26/11:30pm 15.0 SE 9 11 1024.8 - 0.0 - - - - - - -
26/11:00pm 15.2 SE 15 22 1024.6 - 0.0 - - - - - - -
26/10:30pm 15.4 SE 15 21 1024.6 - 0.0 - - - - - - -
26/10:00pm 15.5 SE 15 21 1024.4 - 0.0 - - - - - - -
26/09:30pm 15.5 SSE 14 17 1024.1 - 0.0 - - - - - - -
26/09:00pm 15.8 SSE 14 18 1024.1 - 0.0 - - - - - - -
26/08:30pm 15.5 SSE 14 18 1023.9 - 0.0 - - - - - - -
26/08:00pm 15.7 SSE 12 16 1023.8 - 0.0 - - - - - - -
26/07:30pm 15.9 SSE 13 17 1023.5 - 0.0 - - - - - - -
26/07:00pm 15.9 SSE 12 14 1023.4 - 0.0 - - - - - - -
26/06:30pm 15.7 SSE 13 18 1023.2 - 0.0 - - - - - - -
26/06:00pm 15.9 SSE 13 17 1023.2 - 0.0 - - - - - - -
26/05:30pm 15.8 SSE 12 15 1023.3 - 0.0 - - - - - - -
26/05:00pm 16.2 SSE 13 17 1023.4 - 0.0 - - - - - - -
26/04:30pm 16.1 SSE 13 16 1023.3 - 0.0 - - - - - - -
26/04:00pm 16.1 SSE 12 17 1023.5 - 0.0 - - - - - - -
26/03:30pm 16.1 SSE 10 14 1023.7 - 0.0 - - - - - - -
26/03:00pm 16.1 SSE 10 13 1024.1 - 0.0 - - - - - - -
26/02:30pm 15.6 SSE 10 13 1024.1 - 0.0 - - - - - - -
26/02:00pm 16.4 S 9 12 1024.5 - 0.0 - - - - - - -
26/01:30pm 15.5 S 9 13 1024.6 - 0.0 - - - - - - -
26/01:00pm 15.9 SSE 9 12 1024.9 - 0.0 - - - - - - -
26/12:30pm 15.8 SSE 9 11 1025.0 - 0.0 - - - - - - -
26/12:00pm 15.9 SSE 10 14 1025.1 - 0.0 - - - - - - -
26/11:30am 15.7 S 7 9 1025.2 - 0.0 - - - - - - -
26/11:00am 15.8 S 8 10 1025.1 - 0.0 - - - - - - -
26/10:30am 15.7 S 7 10 1025.0 - 0.0 - - - - - - -
26/10:00am 15.2 S 8 9 1024.8 - 0.0 - - - - - - -
26/09:30am 15.0 SSE 6 9 1024.6 - 0.0 - - - - - - -
26/09:00am 14.7 S 8 11 1024.4 - 0.0 - - - - - - -
26/08:30am 14.8 SSE 7 9 1024.1 - 0.0 - - - - - - -
26/08:00am 14.7 S 6 10 1023.9 - 0.0 - - - - - - -
26/07:30am 14.4 S 7 10 1023.4 - 0.0 - - - - - - -
26/07:00am 14.3 S 8 11 1023.1 - 0.0 - - - - - - -
26/06:30am 14.4 S 8 11 1022.8 - 0.0 - - - - - - -
26/06:00am 14.3 S 9 12 1022.3 - 0.0 - - - - - - -

Other Formats:

Comma delimited format used in spreadsheet applications
http://www.bom.gov.au/fwo/IDS60701/IDS60701.94822.axf

JavaScript Object Notation format (JSON) in row-major order
http://www.bom.gov.au/fwo/IDS60701/IDS60701.94822.json